createdAt,value
2019-02-14T00:00:13.454Z,6.63
2019-02-14T00:02:42.051Z,9.20
2019-02-14T00:05:16.146Z,8.77
2019-02-14T00:07:41.149Z,8.63
2019-02-14T00:10:10.425Z,7.83
2019-02-14T00:12:39.185Z,8.50
2019-02-14T00:15:11.208Z,12.37
2019-02-14T00:17:39.635Z,8.20
2019-02-14T00:20:09.908Z,6.00
2019-02-14T00:22:38.375Z,12.67
2019-02-14T00:25:10.386Z,7.53
2019-02-14T00:27:39.082Z,13.00
2019-02-14T00:30:10.084Z,7.80
2019-02-14T00:32:38.513Z,9.33
2019-02-14T00:35:07.380Z,9.03
2019-02-14T00:37:35.952Z,10.93
2019-02-14T00:40:06.606Z,8.03
2019-02-14T00:42:35.034Z,10.93
2019-02-14T00:45:03.498Z,12.37
2019-02-14T00:47:31.932Z,13.20
2019-02-14T00:50:00.430Z,8.80
2019-02-14T00:52:29.429Z,10.03
2019-02-14T00:54:57.881Z,6.60
2019-02-14T00:57:26.406Z,14.57
2019-02-14T00:59:54.869Z,8.27
2019-02-14T01:02:23.313Z,7.93
2019-02-14T01:04:51.757Z,11.70
2019-02-14T01:07:20.372Z,11.43
2019-02-14T01:09:48.813Z,17.67
2019-02-14T01:12:17.581Z,12.63
2019-02-14T01:14:46.425Z,10.53
2019-02-14T01:17:14.853Z,10.83
2019-02-14T01:19:43.280Z,7.83
2019-02-14T01:22:11.751Z,5.83
2019-02-14T01:24:40.173Z,7.33
2019-02-14T01:27:08.600Z,7.57
2019-02-14T01:29:37.414Z,9.57
2019-02-14T01:32:05.840Z,6.57
2019-02-14T01:34:34.627Z,8.17
2019-02-14T01:37:03.096Z,7.93
2019-02-14T01:39:31.521Z,5.87
2019-02-14T01:42:00.020Z,6.70
2019-02-14T01:44:29.348Z,8.63
2019-02-14T01:46:58.109Z,7.10
2019-02-14T01:50:06.487Z,8.10
2019-02-14T01:52:34.917Z,7.90
2019-02-14T02:00:51.357Z,5.80
2019-02-14T02:03:19.817Z,4.40
2019-02-14T02:05:50.879Z,6.70
2019-02-14T02:08:18.540Z,6.83
2019-02-14T02:13:40.352Z,5.13
2019-02-14T02:16:08.780Z,7.63
2019-02-14T02:21:32.152Z,4.93
2019-02-14T02:24:00.572Z,5.33
2019-02-14T02:26:29.072Z,6.60
2019-02-14T02:31:50.930Z,6.47
2019-02-14T02:34:19.774Z,4.80
2019-02-14T02:36:48.291Z,9.53
2019-02-14T02:39:17.032Z,4.50
2019-02-14T02:41:45.491Z,7.33
2019-02-14T02:44:13.919Z,9.83
2019-02-14T02:46:42.351Z,9.93
2019-02-14T02:49:10.845Z,8.97
2019-02-14T02:57:01.460Z,7.30
2019-02-14T02:59:29.953Z,9.10
2019-02-14T03:01:58.381Z,17.10
2019-02-14T03:07:33.786Z,13.07
2019-02-14T03:10:02.216Z,7.97
2019-02-14T03:12:50.061Z,6.47
2019-02-14T03:15:18.784Z,5.83
2019-02-14T03:17:47.216Z,7.43
2019-02-14T03:20:15.668Z,5.40
2019-02-14T03:23:03.509Z,10.10
2019-02-14T03:25:32.413Z,6.27
2019-02-14T03:28:01.163Z,6.87
2019-02-14T03:30:29.599Z,6.30
2019-02-14T03:32:58.433Z,6.80
2019-02-14T03:35:26.856Z,5.07
2019-02-14T03:37:55.284Z,6.20
2019-02-14T03:40:23.740Z,5.77
2019-02-14T03:43:11.359Z,5.50
2019-02-14T03:45:39.828Z,6.30
2019-02-14T03:48:08.258Z,8.73
2019-02-14T03:50:36.686Z,8.50
2019-02-14T03:53:05.144Z,5.07
2019-02-14T03:55:33.574Z,6.50
2019-02-14T03:58:02.004Z,5.77
2019-02-14T04:00:30.464Z,5.97
2019-02-14T04:02:58.892Z,9.07
2019-02-14T04:05:27.323Z,6.47
2019-02-14T04:07:55.775Z,7.90
2019-02-14T04:10:24.203Z,7.90
2019-02-14T04:12:52.634Z,13.23
2019-02-14T04:17:54.660Z,8.47
2019-02-14T04:20:23.225Z,9.03
2019-02-14T04:22:51.652Z,8.23
2019-02-14T04:25:20.090Z,7.47
2019-02-14T04:27:48.589Z,10.13
2019-02-14T04:30:36.255Z,6.10
2019-02-14T04:33:23.981Z,7.47
2019-02-14T04:35:52.415Z,9.60
2019-02-14T04:38:20.836Z,5.80
2019-02-14T04:41:08.619Z,6.53
2019-02-14T04:43:37.034Z,8.43
2019-02-14T04:46:05.465Z,6.87
2019-02-14T04:48:33.943Z,8.33
2019-02-14T04:51:02.367Z,6.10
2019-02-14T04:53:30.792Z,7.27
2019-02-14T04:55:59.243Z,5.33
2019-02-14T04:58:27.692Z,8.97
2019-02-14T05:00:56.475Z,6.23
2019-02-14T05:03:24.931Z,8.33
2019-02-14T05:05:53.354Z,6.87
2019-02-14T05:08:21.775Z,6.13
2019-02-14T05:13:24.685Z,5.20
2019-02-14T05:16:12.425Z,6.20
2019-02-14T05:18:40.941Z,8.63
2019-02-14T05:21:09.364Z,8.67
2019-02-14T05:23:37.819Z,9.00
2019-02-14T05:26:06.337Z,10.30
2019-02-14T05:28:34.769Z,10.40
2019-02-14T05:31:03.230Z,10.97
2019-02-14T05:33:31.747Z,6.50
2019-02-14T05:36:00.188Z,7.77
2019-02-14T05:38:28.980Z,18.23
2019-02-14T05:40:57.784Z,6.10
2019-02-14T05:43:26.225Z,6.10
2019-02-14T05:45:54.686Z,8.67
2019-02-14T05:48:23.112Z,6.30
2019-02-14T05:50:51.540Z,3.90
2019-02-14T05:53:19.991Z,5.27
2019-02-14T05:55:48.415Z,5.60
2019-02-14T05:58:16.868Z,6.00
2019-02-14T06:00:45.320Z,5.17
2019-02-14T06:03:13.836Z,7.47
2019-02-14T06:05:42.580Z,5.50
2019-02-14T06:08:11.032Z,7.83
2019-02-14T06:10:39.871Z,8.40
2019-02-14T06:13:08.640Z,8.40
2019-02-14T06:15:37.179Z,5.53
2019-02-14T06:18:05.603Z,5.23
2019-02-14T06:20:34.409Z,9.03
2019-02-14T06:23:03.279Z,7.90
2019-02-14T06:25:31.747Z,11.47
2019-02-14T06:28:00.176Z,4.80
2019-02-14T06:30:28.948Z,5.13
2019-02-14T06:32:57.372Z,8.67
2019-02-14T06:35:25.807Z,5.43
2019-02-14T06:38:34.744Z,5.90
2019-02-14T06:41:03.672Z,6.67
2019-02-14T06:43:52.624Z,6.40
2019-02-14T06:46:21.061Z,8.17
2019-02-14T06:48:49.860Z,12.17
2019-02-14T06:51:18.624Z,7.37
2019-02-14T06:53:47.056Z,6.03
2019-02-14T06:56:15.474Z,8.43
2019-02-14T06:58:43.935Z,6.20
2019-02-14T07:01:12.359Z,7.60
2019-02-14T07:03:41.626Z,6.70
2019-02-14T07:06:10.083Z,6.10
2019-02-14T07:08:38.513Z,10.20
2019-02-14T07:11:26.524Z,7.83
2019-02-14T07:13:54.951Z,8.33
2019-02-14T07:16:23.381Z,7.50
2019-02-14T07:18:51.837Z,10.90
2019-02-14T07:21:21.747Z,7.00
2019-02-14T07:23:51.001Z,5.70
2019-02-14T07:28:53.224Z,6.53
2019-02-14T07:31:21.652Z,7.00
2019-02-14T07:33:50.128Z,7.53
2019-02-14T07:36:18.639Z,11.17
2019-02-14T07:38:47.140Z,10.80
2019-02-14T07:41:15.591Z,8.83
2019-02-14T07:43:44.017Z,8.43
2019-02-14T07:46:12.445Z,8.03
2019-02-14T07:51:33.706Z,14.30
2019-02-14T07:54:02.181Z,16.27
2019-02-14T07:56:30.708Z,19.27
2019-02-14T07:58:59.140Z,16.00
2019-02-14T08:01:46.782Z,11.20
2019-02-14T08:04:15.214Z,12.80
2019-02-14T08:06:43.925Z,17.13
2019-02-14T08:09:12.397Z,10.30
2019-02-14T08:12:00.145Z,12.43
2019-02-14T08:14:28.692Z,12.23
2019-02-14T08:16:57.124Z,11.57
2019-02-14T08:19:25.583Z,11.30
2019-02-14T08:21:54.058Z,23.77
2019-02-14T08:24:22.490Z,19.10
2019-02-14T08:26:50.928Z,17.17
2019-02-14T08:29:19.391Z,23.10
2019-02-14T08:31:47.821Z,19.10
2019-02-14T08:37:24.546Z,16.50
2019-02-14T08:39:52.966Z,9.33
2019-02-14T08:42:21.399Z,13.70
2019-02-14T08:44:49.855Z,12.60
2019-02-14T08:47:18.612Z,16.63
2019-02-14T08:49:47.036Z,10.13
2019-02-14T08:52:15.490Z,8.57
2019-02-14T08:54:43.938Z,14.90
2019-02-14T08:57:12.361Z,15.70
2019-02-14T08:59:41.121Z,7.50
2019-02-14T09:02:09.551Z,10.30
2019-02-14T09:04:37.966Z,8.03
2019-02-14T09:07:06.417Z,6.50
2019-02-14T09:09:34.843Z,8.40
2019-02-14T09:12:03.633Z,11.60
2019-02-14T09:17:26.924Z,13.27
2019-02-14T09:19:55.351Z,11.47
2019-02-14T09:22:24.110Z,12.50
2019-02-14T09:24:52.666Z,8.40
2019-02-14T09:27:21.087Z,11.53
2019-02-14T09:29:49.530Z,8.27
2019-02-14T09:34:57.647Z,9.00
2019-02-14T09:37:26.043Z,7.07
2019-02-14T09:39:54.471Z,8.83
2019-02-14T09:42:22.915Z,9.77
2019-02-14T09:44:51.348Z,14.20
2019-02-14T09:47:19.773Z,12.47
2019-02-14T09:49:48.340Z,13.37
2019-02-14T09:52:17.149Z,11.23
2019-02-14T09:54:45.923Z,8.33
2019-02-14T10:02:29.434Z,7.97
2019-02-14T10:04:58.171Z,12.90
2019-02-14T10:07:26.938Z,9.00
2019-02-14T10:09:55.405Z,11.33
2019-02-14T10:12:43.295Z,9.97
2019-02-14T10:15:52.002Z,8.30
2019-02-14T10:18:20.424Z,9.17
2019-02-14T10:20:49.205Z,9.70
2019-02-14T10:23:18.090Z,14.90
2019-02-14T10:25:47.924Z,7.90
2019-02-14T10:28:16.343Z,9.63
2019-02-14T10:30:44.791Z,9.20
2019-02-14T10:33:13.215Z,10.03
2019-02-14T10:36:00.863Z,13.40
2019-02-14T10:38:29.283Z,8.53
2019-02-14T10:40:57.991Z,10.93
2019-02-14T10:46:00.503Z,16.33
2019-02-14T10:48:28.957Z,11.03
2019-02-14T10:50:57.379Z,9.47
2019-02-14T10:53:25.803Z,16.57
2019-02-14T10:55:54.333Z,16.80
2019-02-14T10:58:22.827Z,14.20
2019-02-14T11:00:51.256Z,19.97
2019-02-14T11:03:20.057Z,25.37
2019-02-14T11:06:08.122Z,18.60
2019-02-14T11:11:30.317Z,18.23
2019-02-14T11:16:32.412Z,15.90
2019-02-14T11:19:00.866Z,17.70
2019-02-14T11:21:29.611Z,12.53
2019-02-14T11:23:58.395Z,13.70
2019-02-14T11:26:26.849Z,14.90
2019-02-14T11:28:55.581Z,17.73
2019-02-14T11:31:23.989Z,25.70
2019-02-14T11:36:26.381Z,17.40
2019-02-14T11:38:54.816Z,20.13
2019-02-14T11:43:57.653Z,18.13
2019-02-14T11:46:26.210Z,26.17
2019-02-14T11:48:54.641Z,14.23
2019-02-14T11:54:16.573Z,19.17
2019-02-14T11:56:45.040Z,16.70
2019-02-14T11:59:13.474Z,20.93
2019-02-14T12:01:41.991Z,14.07
2019-02-14T12:04:10.444Z,21.43
2019-02-14T12:06:38.971Z,15.70
2019-02-14T12:09:07.455Z,16.83
2019-02-14T12:11:36.004Z,16.63
2019-02-14T12:14:04.788Z,27.00
2019-02-14T12:16:33.303Z,14.27
2019-02-14T12:19:01.861Z,18.90
2019-02-14T12:21:30.290Z,15.77
2019-02-14T12:23:59.008Z,24.20
2019-02-14T12:26:46.585Z,23.03
2019-02-14T12:29:34.230Z,13.80
2019-02-14T12:32:02.709Z,18.90
2019-02-14T12:34:31.176Z,20.73
2019-02-14T12:37:18.994Z,14.40
2019-02-14T12:39:47.426Z,15.87
2019-02-14T12:42:15.853Z,29.47
2019-02-14T12:47:18.321Z,22.37
2019-02-14T12:49:46.870Z,20.00
2019-02-14T12:52:15.296Z,12.90
2019-02-14T12:54:44.068Z,17.73
2019-02-14T12:57:12.545Z,18.83
2019-02-14T12:59:40.974Z,11.00
2019-02-14T13:02:28.616Z,25.43
2019-02-14T13:04:57.149Z,13.87
2019-02-14T13:07:25.580Z,22.67
2019-02-14T13:10:13.444Z,20.93
2019-02-14T13:12:41.960Z,11.17
2019-02-14T13:15:50.331Z,11.90
2019-02-14T13:18:19.044Z,10.53
2019-02-14T13:20:47.477Z,17.10
2019-02-14T13:23:16.007Z,17.10
2019-02-14T13:25:44.446Z,16.90
2019-02-14T13:28:32.225Z,14.00
2019-02-14T13:31:00.667Z,11.80
2019-02-14T13:33:29.389Z,17.00
2019-02-14T13:36:17.284Z,19.13
2019-02-14T13:38:45.810Z,10.70
2019-02-14T13:41:33.593Z,15.13
2019-02-14T13:44:02.108Z,11.10
2019-02-14T13:46:30.808Z,12.70
2019-02-14T13:48:59.274Z,10.23
2019-02-14T13:51:27.698Z,9.50
2019-02-14T13:54:15.489Z,9.97
2019-02-14T13:56:54.031Z,9.10
2019-02-14T14:01:56.774Z,9.30
2019-02-14T14:04:25.292Z,10.10
2019-02-14T14:06:53.725Z,12.43
2019-02-14T14:09:22.190Z,13.00
2019-02-14T14:11:50.621Z,10.43
2019-02-14T14:14:19.143Z,13.53
2019-02-14T14:19:21.944Z,13.47
2019-02-14T14:21:50.733Z,16.07
2019-02-14T14:24:19.254Z,12.70
2019-02-14T14:26:47.680Z,20.63
2019-02-14T14:29:16.459Z,12.23
2019-02-14T14:31:44.976Z,20.37
2019-02-14T14:34:13.409Z,17.03
2019-02-14T14:39:16.432Z,20.63
2019-02-14T14:41:44.995Z,14.70
2019-02-14T14:47:02.871Z,14.13
2019-02-14T14:49:31.303Z,20.53
2019-02-14T14:51:59.734Z,24.87
2019-02-14T14:54:28.194Z,12.13
2019-02-14T14:56:56.620Z,18.77
2019-02-14T14:59:25.377Z,12.70
2019-02-14T15:01:54.164Z,14.17
2019-02-14T15:04:22.952Z,16.53
2019-02-14T15:06:51.381Z,12.33
2019-02-14T15:09:19.840Z,19.17
2019-02-14T15:11:48.270Z,21.70
2019-02-14T15:14:16.792Z,12.07
2019-02-14T15:16:45.325Z,15.23
2019-02-14T15:19:13.757Z,19.60
2019-02-14T15:21:42.545Z,16.87
2019-02-14T15:24:11.313Z,16.20
2019-02-14T15:26:40.106Z,12.63
2019-02-14T15:29:08.912Z,24.90
2019-02-14T15:31:37.476Z,22.63
2019-02-14T15:34:06.264Z,20.53
2019-02-14T15:36:34.692Z,14.43
2019-02-14T15:41:39.081Z,16.67
2019-02-14T15:44:07.516Z,13.80
2019-02-14T15:46:35.964Z,14.73
2019-02-14T15:49:25.406Z,17.00
2019-02-14T15:51:54.200Z,27.73
2019-02-14T15:54:22.657Z,24.67
2019-02-14T15:56:53.148Z,18.37
2019-02-14T15:59:42.991Z,12.43
2019-02-14T16:02:10.916Z,22.43
2019-02-14T16:04:39.655Z,18.63
2019-02-14T16:07:08.071Z,17.33
2019-02-14T16:09:38.864Z,26.97
2019-02-14T16:12:06.782Z,17.93
2019-02-14T16:14:54.613Z,14.00
2019-02-14T16:17:23.352Z,17.40
2019-02-14T16:19:51.782Z,23.00
2019-02-14T16:24:54.342Z,22.03
2019-02-14T16:27:24.535Z,17.20
2019-02-14T16:29:53.143Z,14.80
2019-02-14T16:32:21.572Z,15.90
2019-02-14T16:34:49.998Z,18.53
2019-02-14T16:37:18.541Z,15.30
2019-02-14T16:39:51.842Z,17.70
2019-02-14T16:42:17.123Z,20.43
2019-02-14T16:47:20.067Z,14.10
2019-02-14T16:49:48.508Z,20.93
2019-02-14T16:52:17.049Z,10.90
2019-02-14T16:54:45.528Z,15.00
2019-02-14T16:57:13.995Z,11.03
2019-02-14T16:59:42.830Z,20.53
2019-02-14T17:02:11.355Z,16.17
2019-02-14T17:04:59.056Z,15.20
2019-02-14T17:10:15.019Z,11.30
2019-02-14T17:12:43.452Z,20.53
2019-02-14T17:15:31.493Z,14.43
2019-02-14T17:17:59.922Z,17.07
2019-02-14T17:20:28.703Z,16.33
2019-02-14T17:22:57.170Z,12.07
2019-02-14T17:25:45.149Z,20.80
2019-02-14T17:28:13.911Z,13.93
2019-02-14T17:30:42.448Z,17.93
2019-02-14T17:33:10.865Z,10.77
2019-02-14T17:35:39.321Z,19.77
2019-02-14T17:38:07.757Z,19.27
2019-02-14T17:40:36.176Z,13.60
2019-02-14T17:45:57.836Z,15.13
2019-02-14T17:48:26.668Z,13.83
2019-02-14T17:50:56.773Z,19.03
2019-02-14T17:53:25.557Z,19.33
2019-02-14T17:55:53.993Z,21.60
2019-02-14T17:58:22.453Z,14.73
2019-02-14T18:00:50.887Z,18.80
2019-02-14T18:03:19.718Z,15.90
2019-02-14T18:05:48.289Z,24.40
2019-02-14T18:08:35.843Z,16.87
2019-02-14T18:13:39.011Z,16.97
2019-02-14T18:16:07.795Z,16.43
2019-02-14T18:18:36.261Z,14.53
2019-02-14T18:21:04.778Z,23.17
2019-02-14T18:23:33.237Z,16.90
2019-02-14T18:26:02.526Z,17.43
2019-02-14T18:28:30.955Z,13.57
2019-02-14T18:31:18.738Z,18.67
2019-02-14T18:34:06.550Z,23.90
2019-02-14T18:36:54.354Z,25.80
2019-02-14T18:39:42.141Z,20.87
2019-02-14T18:42:30.428Z,37.73
2019-02-14T18:45:19.543Z,21.47
2019-02-14T18:48:07.225Z,30.97
2019-02-14T18:50:35.719Z,30.53
2019-02-14T18:53:23.552Z,27.50
2019-02-14T18:56:11.338Z,36.17
2019-02-14T19:04:46.771Z,36.33
2019-02-14T19:07:15.223Z,25.63
2019-02-14T19:09:44.713Z,25.10
2019-02-14T19:12:32.624Z,19.07
2019-02-14T19:15:20.281Z,25.23
2019-02-14T19:17:49.107Z,23.60
2019-02-14T19:20:36.907Z,22.13
2019-02-14T19:25:59.092Z,23.80
2019-02-14T19:28:46.993Z,18.63
2019-02-14T19:31:15.533Z,16.30
2019-02-14T19:34:03.453Z,15.53
2019-02-14T19:36:31.970Z,16.10
2019-02-14T19:39:00.406Z,14.80
2019-02-14T19:41:28.963Z,19.77
2019-02-14T19:44:16.713Z,21.57
2019-02-14T19:46:45.251Z,16.27
2019-02-14T19:49:33.026Z,24.67
2019-02-14T19:52:20.791Z,17.67
2019-02-14T19:58:36.889Z,23.80
2019-02-14T20:01:06.329Z,21.60
2019-02-14T20:03:35.271Z,20.73
2019-02-14T20:06:03.930Z,18.00
2019-02-14T20:08:32.476Z,16.30
2019-02-14T20:11:01.438Z,17.60
2019-02-14T20:13:30.707Z,14.60
2019-02-14T20:15:59.267Z,17.67
2019-02-14T20:18:28.233Z,19.77
2019-02-14T20:20:56.798Z,21.83
2019-02-14T20:23:25.574Z,19.50
2019-02-14T20:25:54.386Z,17.07
2019-02-14T20:28:23.356Z,17.87
2019-02-14T20:30:52.153Z,21.70
2019-02-14T20:33:21.562Z,19.20
2019-02-14T20:35:50.302Z,14.47
2019-02-14T20:38:20.692Z,17.60
2019-02-14T20:40:49.633Z,17.67
2019-02-14T20:43:18.283Z,23.20
2019-02-14T20:45:47.132Z,11.10
2019-02-14T20:48:15.779Z,21.37
2019-02-14T20:50:44.501Z,15.17
2019-02-14T20:53:13.666Z,14.80
2019-02-14T20:55:42.282Z,15.30
2019-02-14T20:58:11.242Z,14.23
2019-02-14T21:00:41.735Z,32.53
2019-02-14T21:03:10.632Z,13.83
2019-02-14T21:05:40.367Z,21.87
2019-02-14T21:08:09.358Z,17.47
2019-02-14T21:10:38.010Z,23.27
2019-02-14T21:13:06.724Z,21.70
2019-02-14T21:15:35.682Z,22.23
2019-02-14T21:18:06.266Z,18.20
2019-02-14T21:20:35.001Z,23.40
2019-02-14T21:23:03.540Z,23.50
2019-02-14T21:25:32.055Z,24.47
2019-02-14T21:28:00.579Z,18.60
2019-02-14T21:30:29.069Z,18.80
2019-02-14T21:32:57.777Z,20.53
2019-02-14T21:35:26.463Z,20.33
2019-02-14T21:37:55.002Z,21.13
2019-02-14T21:40:23.744Z,17.97
2019-02-14T21:42:52.378Z,16.90
2019-02-14T21:45:21.166Z,16.83
2019-02-14T21:47:49.887Z,12.83
2019-02-14T21:50:19.206Z,12.00
2019-02-14T21:52:47.643Z,27.23
2019-02-14T21:55:17.386Z,13.67
2019-02-14T21:57:46.659Z,17.73
2019-02-14T22:00:26.494Z,16.20
2019-02-14T22:02:54.994Z,12.63
2019-02-14T22:05:25.815Z,18.23
2019-02-14T22:07:54.000Z,14.10
2019-02-14T22:10:23.444Z,14.97
2019-02-14T22:12:51.949Z,13.43
2019-02-14T22:15:25.749Z,13.33
2019-02-14T22:17:54.615Z,17.10
2019-02-14T22:20:23.395Z,17.60
2019-02-14T22:22:52.148Z,14.40
2019-02-14T22:25:21.309Z,15.60
2019-02-14T22:27:50.032Z,18.80
2019-02-14T22:30:18.662Z,15.70
2019-02-14T22:32:47.893Z,16.20
2019-02-14T22:35:16.604Z,21.07
2019-02-14T22:37:45.041Z,18.43
2019-02-14T22:40:14.622Z,23.00
2019-02-14T22:42:47.142Z,15.53
2019-02-14T22:45:15.072Z,20.77
2019-02-14T22:47:45.054Z,19.80
2019-02-14T22:50:14.413Z,21.93
2019-02-14T22:52:42.926Z,20.53
2019-02-14T22:55:13.312Z,17.10
2019-02-14T22:57:41.924Z,16.27
2019-02-14T23:00:13.668Z,23.00
2019-02-14T23:02:42.403Z,17.33
2019-02-14T23:05:12.198Z,16.47
2019-02-14T23:07:41.136Z,12.80
2019-02-14T23:10:10.128Z,17.90
2019-02-14T23:12:38.977Z,14.67
2019-02-14T23:15:08.538Z,15.40
2019-02-14T23:17:38.966Z,22.30
2019-02-14T23:20:07.697Z,11.73
2019-02-14T23:22:36.536Z,15.60
2019-02-14T23:25:06.037Z,24.50
2019-02-14T23:27:34.738Z,17.73
2019-02-14T23:30:03.616Z,24.77
2019-02-14T23:32:32.333Z,20.03
2019-02-14T23:35:01.697Z,12.03
2019-02-14T23:37:30.989Z,22.13
2019-02-14T23:40:00.273Z,13.77
2019-02-14T23:42:28.631Z,13.27
2019-02-14T23:44:57.331Z,20.47
2019-02-14T23:47:26.415Z,14.17
2019-02-14T23:49:55.630Z,16.03
2019-02-14T23:52:24.347Z,18.70
2019-02-14T23:54:53.117Z,16.57
2019-02-14T23:57:21.841Z,14.80
2019-02-14T23:59:50.517Z,12.00
